Time;durP1;ratioP1;P1;durP2;ratioP2;P2;SDS_P1;SDS_P2;PMS_P1;PMS_P2;Temp;Humidity;BMP_temperature;BMP_pressure;BME280_temperature;BME280_humidity;BME280_pressure;Samples;Min_cycle;Max_cycle;Signal;HPM_P1;HPM_P2
2023/10/27 00:01:12;;;;;;;1.40;1.17;;;10.90;99.90;;;;;;5086921;28;20621;-73
2023/10/27 00:03:39;;;;;;;1.70;0.90;;;10.90;99.90;;;;;;5087354;28;21185;-73
2023/10/27 00:06:06;;;;;;;1.30;1.10;;;10.80;99.90;;;;;;5086648;28;20621;-72
2023/10/27 00:08:33;;;;;;;1.33;1.27;;;10.80;99.90;;;;;;5078577;28;20787;-73
2023/10/27 00:11:05;;;;;;;1.17;1.07;;;10.90;99.90;;;;;;5086708;28;20625;-73
2023/10/27 00:13:32;;;;;;;1.53;1.43;;;10.80;99.90;;;;;;5087029;28;20633;-72
2023/10/27 00:15:59;;;;;;;2.30;1.40;;;10.80;99.90;;;;;;5086619;28;20672;-72
2023/10/27 00:18:25;;;;;;;8.63;2.27;;;10.70;99.90;;;;;;5085824;28;20617;-72
2023/10/27 00:20:52;;;;;;;1.37;1.27;;;10.70;99.90;;;;;;5087226;28;20662;-72
2023/10/27 00:23:21;;;;;;;1.47;1.37;;;10.80;99.90;;;;;;5086675;28;20728;-72
2023/10/27 00:25:48;;;;;;;1.10;1.00;;;10.60;99.90;;;;;;5086754;28;21224;-72
2023/10/27 00:28:16;;;;;;;1.87;1.77;;;10.60;99.90;;;;;;5086466;28;20748;-72
2023/10/27 00:30:43;;;;;;;1.83;1.23;;;10.60;99.90;;;;;;5086708;28;20680;-72
2023/10/27 00:33:10;;;;;;;2.13;1.70;;;10.60;99.90;;;;;;5086138;28;21184;-72
2023/10/27 00:35:36;;;;;;;1.40;1.30;;;10.60;99.90;;;;;;5088439;28;20656;-73
2023/10/27 00:38:03;;;;;;;1.27;1.17;;;10.60;99.90;;;;;;5086251;28;21039;-73
2023/10/27 00:40:30;;;;;;;1.30;1.17;;;10.50;99.90;;;;;;5086581;28;20963;-72
2023/10/27 00:42:57;;;;;;;1.30;1.20;;;10.60;99.90;;;;;;5086041;28;20733;-73
2023/10/27 00:45:26;;;;;;;2.33;1.63;;;10.50;99.90;;;;;;5085814;28;20626;-73
2023/10/27 00:47:53;;;;;;;1.97;1.83;;;10.50;99.90;;;;;;5083537;28;20612;-72
2023/10/27 00:50:20;;;;;;;1.90;1.60;;;10.50;99.90;;;;;;5091808;28;20632;-72
2023/10/27 00:52:47;;;;;;;1.40;1.30;;;10.60;99.90;;;;;;5086473;28;20624;-72
2023/10/27 00:55:14;;;;;;;1.20;1.10;;;10.50;99.90;;;;;;5085965;28;20660;-72
2023/10/27 00:57:42;;;;;;;1.40;1.10;;;10.40;99.90;;;;;;5085836;28;20733;-72
2023/10/27 01:00:10;;;;;;;1.27;1.17;;;10.50;99.90;;;;;;5084966;28;20634;-73
2023/10/27 01:02:38;;;;;;;1.63;1.27;;;10.40;99.90;;;;;;5085885;28;20623;-73
2023/10/27 01:05:05;;;;;;;1.97;1.13;;;10.40;99.90;;;;;;5089896;28;20622;-72
2023/10/27 01:07:32;;;;;;;1.40;1.00;;;10.40;99.90;;;;;;5077371;28;20747;-72
2023/10/27 01:10:00;;;;;;;3.00;1.93;;;10.40;99.90;;;;;;5085621;28;20698;-72
2023/10/27 01:12:27;;;;;;;1.47;1.30;;;10.40;99.90;;;;;;5085755;28;20625;-72
2023/10/27 01:14:54;;;;;;;3.27;1.10;;;10.40;99.90;;;;;;5085972;28;21322;-72
2023/10/27 01:17:23;;;;;;;2.43;1.77;;;10.40;99.90;;;;;;5085597;28;20625;-72
2023/10/27 01:19:52;;;;;;;1.00;0.83;;;10.40;99.90;;;;;;5086214;28;20975;-72
2023/10/27 01:22:20;;;;;;;1.90;1.80;;;10.30;99.90;;;;;;5084550;28;20629;-72
2023/10/27 01:24:50;;;;;;;2.23;1.40;;;10.30;99.90;;;;;;5085714;28;20613;-72
2023/10/27 01:27:17;;;;;;;1.03;0.80;;;10.40;99.90;;;;;;5084723;28;21014;-73
2023/10/27 01:29:45;;;;;;;1.30;1.13;;;10.30;99.90;;;;;;5086420;28;20620;-73
2023/10/27 01:32:13;;;;;;;2.43;1.43;;;10.30;99.90;;;;;;5085931;28;20660;-73
2023/10/27 01:34:40;;;;;;;1.30;1.00;;;10.30;99.90;;;;;;5086290;28;20718;-73
2023/10/27 01:37:09;;;;;;;1.40;1.30;;;10.40;99.90;;;;;;5085706;28;20671;-73
2023/10/27 01:39:37;;;;;;;1.10;1.00;;;10.40;99.90;;;;;;5085390;28;20633;-73
2023/10/27 01:42:06;;;;;;;1.53;1.30;;;10.50;99.90;;;;;;5093656;28;20953;-72
2023/10/27 01:44:36;;;;;;;1.33;1.17;;;10.40;99.90;;;;;;5086053;28;20984;-73
2023/10/27 01:47:04;;;;;;;0.67;0.67;;;10.40;99.90;;;;;;5085062;28;20780;-72
2023/10/27 01:49:32;;;;;;;0.83;0.80;;;10.40;99.90;;;;;;5079024;28;20662;-73
2023/10/27 01:52:00;;;;;;;1.00;0.90;;;10.30;99.90;;;;;;5089098;28;20621;-73
2023/10/27 01:54:27;;;;;;;2.63;1.00;;;10.30;99.90;;;;;;5089385;28;20962;-73
2023/10/27 01:56:55;;;;;;;1.10;1.00;;;10.30;99.90;;;;;;5096836;28;20675;-72
2023/10/27 01:59:24;;;;;;;1.50;0.90;;;10.30;99.90;;;;;;5081434;28;20649;-73
2023/10/27 02:01:52;;;;;;;1.70;1.60;;;10.30;99.90;;;;;;5089427;28;20621;-72
2023/10/27 02:04:20;;;;;;;1.20;1.10;;;10.30;99.90;;;;;;5089081;28;20625;-72
2023/10/27 02:06:48;;;;;;;1.83;1.30;;;10.30;99.90;;;;;;5088850;28;20625;-73
2023/10/27 02:09:16;;;;;;;3.03;1.40;;;10.40;99.90;;;;;;5093832;28;21409;-72
2023/10/27 02:11:43;;;;;;;1.80;1.40;;;10.40;99.90;;;;;;5089613;28;20724;-72
2023/10/27 02:14:10;;;;;;;1.90;1.00;;;10.40;99.90;;;;;;5088897;28;20637;-72
2023/10/27 02:16:38;;;;;;;0.60;0.60;;;10.40;99.90;;;;;;5088288;28;20686;-72
2023/10/27 02:19:05;;;;;;;1.00;0.90;;;10.40;99.90;;;;;;5089009;28;20619;-72
2023/10/27 02:21:32;;;;;;;1.40;1.30;;;10.40;99.90;;;;;;5089072;28;20986;-72
2023/10/27 02:24:00;;;;;;;1.30;1.30;;;10.40;99.90;;;;;;5089176;28;20640;-72
2023/10/27 02:26:27;;;;;;;3.80;1.17;;;10.30;99.90;;;;;;5089241;28;20618;-72
2023/10/27 02:28:53;;;;;;;2.33;1.60;;;10.40;99.90;;;;;;5081942;28;20616;-72
2023/10/27 02:31:23;;;;;;;1.43;1.20;;;10.30;99.90;;;;;;5089183;28;20632;-72
2023/10/27 02:33:52;;;;;;;1.30;1.20;;;10.30;99.90;;;;;;5087991;28;20809;-72
2023/10/27 02:36:20;;;;;;;0.83;0.80;;;10.30;99.90;;;;;;5088784;28;20664;-72
2023/10/27 02:38:48;;;;;;;1.20;1.10;;;10.20;99.90;;;;;;5088310;28;20629;-72
2023/10/27 02:41:16;;;;;;;1.27;1.17;;;10.20;99.90;;;;;;5088312;28;21049;-72
2023/10/27 02:43:44;;;;;;;0.87;0.87;;;10.10;99.90;;;;;;5088970;28;20637;-72
2023/10/27 02:46:13;;;;;;;1.17;1.10;;;10.10;99.90;;;;;;5078669;28;20621;-72
2023/10/27 02:48:42;;;;;;;1.07;1.00;;;10.10;99.90;;;;;;5088098;28;20628;-72
2023/10/27 02:51:12;;;;;;;1.07;1.00;;;10.00;99.90;;;;;;5088839;28;20632;-72
2023/10/27 02:53:39;;;;;;;3.27;1.53;;;10.00;99.90;;;;;;5088635;28;20651;-72
2023/10/27 02:56:08;;;;;;;1.53;0.80;;;10.10;99.90;;;;;;5087486;28;20703;-72
2023/10/27 02:58:36;;;;;;;3.83;1.17;;;10.20;99.90;;;;;;5087981;28;20664;-72
2023/10/27 03:01:08;;;;;;;1.00;0.77;;;10.10;99.90;;;;;;5086187;28;20649;-72
2023/10/27 03:03:37;;;;;;;1.13;1.00;;;10.10;99.90;;;;;;5088206;28;20625;-72
2023/10/27 03:06:05;;;;;;;1.00;0.90;;;10.10;99.90;;;;;;5088111;28;20625;-72
2023/10/27 03:08:35;;;;;;;1.80;0.90;;;10.20;99.90;;;;;;5079454;28;20636;-72
2023/10/27 03:11:03;;;;;;;1.27;1.17;;;10.10;99.90;;;;;;5088239;28;20640;-72
2023/10/27 03:13:30;;;;;;;0.90;0.80;;;10.10;99.90;;;;;;5087418;28;20636;-71
2023/10/27 03:15:59;;;;;;;1.67;1.23;;;10.10;99.90;;;;;;5088060;28;21003;-72
2023/10/27 03:18:27;;;;;;;2.73;1.40;;;10.20;99.90;;;;;;5087189;28;20617;-72
2023/10/27 03:20:56;;;;;;;0.80;0.80;;;10.10;99.90;;;;;;5087998;28;20715;-72
2023/10/27 03:23:27;;;;;;;0.77;0.77;;;10.20;99.90;;;;;;5088049;28;20692;-72
2023/10/27 03:25:58;;;;;;;2.47;1.20;;;10.20;99.90;;;;;;5087639;28;20632;-72
2023/10/27 03:28:26;;;;;;;2.50;0.83;;;10.20;99.90;;;;;;5087412;28;20999;-72
2023/10/27 03:30:53;;;;;;;0.70;0.70;;;10.10;99.90;;;;;;5087966;28;20613;-72
2023/10/27 03:33:20;;;;;;;1.47;1.37;;;10.10;99.90;;;;;;5087450;28;20614;-72
2023/10/27 03:35:47;;;;;;;1.07;0.70;;;10.20;99.90;;;;;;5087578;28;21126;-72
2023/10/27 03:38:14;;;;;;;1.57;1.03;;;10.20;99.90;;;;;;5086883;28;20614;-72
2023/10/27 03:40:43;;;;;;;4.20;1.33;;;10.10;99.90;;;;;;5087494;28;20629;-72
2023/10/27 03:43:11;;;;;;;0.90;0.90;;;10.10;99.90;;;;;;5079732;28;20625;-72
2023/10/27 03:45:38;;;;;;;1.27;1.10;;;10.10;99.90;;;;;;5087867;28;20630;-72
2023/10/27 03:48:05;;;;;;;1.70;0.83;;;10.00;99.90;;;;;;5086831;28;20972;-72
2023/10/27 03:50:32;;;;;;;1.23;1.13;;;10.00;99.90;;;;;;5087137;28;21196;-72
2023/10/27 03:52:59;;;;;;;1.53;1.43;;;10.10;99.90;;;;;;5088728;28;20698;-72
2023/10/27 03:55:26;;;;;;;1.57;0.80;;;10.10;99.90;;;;;;5087499;28;20621;-72
2023/10/27 03:57:55;;;;;;;1.40;0.97;;;10.00;99.90;;;;;;5080253;28;20669;-72
2023/10/27 04:00:24;;;;;;;1.23;1.13;;;10.00;99.90;;;;;;5086658;28;20976;-72
2023/10/27 04:02:51;;;;;;;1.27;1.17;;;9.90;99.90;;;;;;5077643;28;20995;-72
2023/10/27 04:05:18;;;;;;;1.37;1.27;;;9.90;99.90;;;;;;5084341;28;20677;-72
2023/10/27 04:07:45;;;;;;;2.50;1.30;;;9.90;99.90;;;;;;5079916;28;20623;-72
2023/10/27 04:10:11;;;;;;;1.63;0.93;;;9.80;99.90;;;;;;5084600;28;20631;-72
2023/10/27 04:12:38;;;;;;;1.07;0.97;;;9.90;99.90;;;;;;5085673;28;20613;-72
2023/10/27 04:15:06;;;;;;;0.53;0.50;;;9.90;99.90;;;;;;5083689;28;20631;-72
2023/10/27 04:17:36;;;;;;;0.80;0.63;;;9.90;99.90;;;;;;5085251;28;21099;-72
2023/10/27 04:20:03;;;;;;;1.30;0.80;;;9.80;99.90;;;;;;5084219;28;20637;-72
2023/10/27 04:22:30;;;;;;;0.63;0.60;;;9.90;99.90;;;;;;5086906;28;20650;-72
2023/10/27 04:24:57;;;;;;;1.33;1.10;;;9.90;99.90;;;;;;5086682;28;20956;-72
2023/10/27 04:27:24;;;;;;;0.50;0.50;;;9.90;99.90;;;;;;5086558;28;20620;-71
2023/10/27 04:29:51;;;;;;;0.77;0.77;;;9.90;99.90;;;;;;5088055;28;20961;-71
2023/10/27 04:32:18;;;;;;;1.20;1.10;;;9.90;99.90;;;;;;5086704;28;20729;-71
2023/10/27 04:34:46;;;;;;;0.90;0.90;;;10.10;99.90;;;;;;5084446;28;20748;-73
2023/10/27 04:37:14;;;;;;;3.57;1.13;;;10.00;99.90;;;;;;5086525;28;20748;-73
2023/10/27 04:39:41;;;;;;;0.60;0.60;;;10.00;99.90;;;;;;5086651;28;20675;-72
2023/10/27 04:42:08;;;;;;;1.07;0.93;;;10.10;99.90;;;;;;5086730;28;20621;-73
2023/10/27 04:44:35;;;;;;;0.70;0.70;;;10.20;99.90;;;;;;5086661;28;20625;-72
2023/10/27 04:47:01;;;;;;;0.60;0.60;;;10.10;99.90;;;;;;5085281;28;20625;-72
2023/10/27 04:49:28;;;;;;;1.93;0.90;;;10.10;99.90;;;;;;5085933;28;20625;-72
2023/10/27 04:51:56;;;;;;;0.73;0.73;;;10.10;99.90;;;;;;5086355;28;21201;-75
2023/10/27 04:54:23;;;;;;;1.13;1.03;;;10.00;99.90;;;;;;5086520;28;20613;-74
2023/10/27 04:56:50;;;;;;;2.87;1.23;;;10.00;99.90;;;;;;5085560;28;20659;-72
2023/10/27 04:59:16;;;;;;;1.30;1.20;;;10.00;99.90;;;;;;5075199;28;20629;-71
2023/10/27 05:01:44;;;;;;;0.60;0.60;;;10.00;99.90;;;;;;5085834;28;21063;-72
2023/10/27 05:04:11;;;;;;;1.30;1.20;;;10.00;99.90;;;;;;5086103;28;20636;-72
2023/10/27 05:06:38;;;;;;;0.87;0.87;;;10.00;99.90;;;;;;5085389;28;20625;-72
2023/10/27 05:09:06;;;;;;;2.20;1.03;;;10.00;99.90;;;;;;5085773;28;20628;-72
2023/10/27 05:11:35;;;;;;;0.90;0.90;;;9.90;99.90;;;;;;5085992;28;21050;-72
2023/10/27 05:14:03;;;;;;;1.13;0.63;;;9.90;99.90;;;;;;5085500;28;20637;-72
2023/10/27 05:16:30;;;;;;;1.17;1.07;;;10.00;99.90;;;;;;5082970;28;20661;-72
2023/10/27 05:18:57;;;;;;;1.37;1.27;;;10.00;99.90;;;;;;5085119;28;21128;-72
2023/10/27 05:21:26;;;;;;;1.67;1.27;;;10.10;99.90;;;;;;5074541;28;20628;-72
2023/10/27 05:23:56;;;;;;;1.03;0.93;;;10.10;99.90;;;;;;5079676;28;20630;-72
2023/10/27 05:26:24;;;;;;;0.60;0.60;;;10.20;99.90;;;;;;5078395;28;20623;-72
2023/10/27 05:28:51;;;;;;;1.00;0.90;;;10.20;99.90;;;;;;5087959;28;20978;-72
2023/10/27 05:31:18;;;;;;;1.03;0.93;;;10.10;99.90;;;;;;5082062;28;20748;-72
2023/10/27 05:33:45;;;;;;;1.37;0.90;;;10.20;99.90;;;;;;5084970;28;20634;-72
2023/10/27 05:36:12;;;;;;;2.17;1.00;;;10.20;99.90;;;;;;5081302;28;20637;-72
2023/10/27 05:38:38;;;;;;;1.40;0.80;;;10.10;99.90;;;;;;5088519;28;20643;-72
2023/10/27 05:41:05;;;;;;;0.77;0.77;;;10.10;99.90;;;;;;5089760;28;20644;-72
2023/10/27 05:43:33;;;;;;;1.37;1.10;;;10.10;99.90;;;;;;5082544;28;20641;-72
2023/10/27 05:46:00;;;;;;;1.20;1.10;;;10.10;99.90;;;;;;5091801;28;20975;-72
2023/10/27 05:48:27;;;;;;;1.00;1.00;;;10.00;99.90;;;;;;5090747;28;20987;-72
2023/10/27 05:50:53;;;;;;;1.30;1.20;;;10.00;99.90;;;;;;5089512;28;20656;-72
2023/10/27 05:53:20;;;;;;;1.43;0.97;;;10.00;99.90;;;;;;5089232;28;20628;-72
2023/10/27 05:55:47;;;;;;;2.73;1.30;;;10.00;99.90;;;;;;5086627;28;20995;-72
2023/10/27 05:58:14;;;;;;;1.40;1.30;;;10.00;99.90;;;;;;5088164;28;20668;-72
2023/10/27 06:00:42;;;;;;;0.90;0.90;;;10.10;99.90;;;;;;5091974;28;20639;-72
2023/10/27 06:03:09;;;;;;;2.23;0.70;;;10.10;99.90;;;;;;5095938;28;20625;-72
2023/10/27 06:05:35;;;;;;;4.23;1.13;;;10.20;99.90;;;;;;5088590;28;20633;-72
2023/10/27 06:08:03;;;;;;;1.13;0.63;;;10.10;99.90;;;;;;5087502;28;20730;-72
2023/10/27 06:10:30;;;;;;;0.90;0.90;;;10.00;99.90;;;;;;5090978;28;20624;-72
2023/10/27 06:12:57;;;;;;;1.33;1.23;;;10.00;99.90;;;;;;5088734;28;20660;-72
2023/10/27 06:15:24;;;;;;;2.07;0.77;;;10.00;99.90;;;;;;5086660;28;20636;-72
2023/10/27 06:17:52;;;;;;;0.90;0.70;;;10.00;99.90;;;;;;5085121;28;20672;-72
2023/10/27 06:20:18;;;;;;;1.10;1.00;;;10.10;99.90;;;;;;5088315;28;21089;-72
2023/10/27 06:22:45;;;;;;;1.13;0.87;;;10.10;99.90;;;;;;5091390;28;20631;-72
2023/10/27 06:25:12;;;;;;;0.63;0.63;;;10.10;99.90;;;;;;5087370;28;20637;-72
2023/10/27 06:27:39;;;;;;;1.00;0.80;;;10.10;99.90;;;;;;5095803;28;20637;-72
2023/10/27 06:30:07;;;;;;;1.40;1.30;;;10.00;99.90;;;;;;5096246;28;20720;-72
2023/10/27 06:32:34;;;;;;;1.10;0.77;;;10.00;99.90;;;;;;5093543;28;20634;-72
2023/10/27 06:35:03;;;;;;;1.00;0.87;;;9.90;99.90;;;;;;5088021;28;20960;-72
2023/10/27 06:37:30;;;;;;;1.77;1.00;;;9.90;99.90;;;;;;5095307;28;20699;-72
2023/10/27 06:40:00;;;;;;;0.97;0.87;;;10.00;99.90;;;;;;5092021;28;20613;-71
2023/10/27 06:42:27;;;;;;;0.50;0.47;;;10.00;99.90;;;;;;5088853;28;20629;-72
2023/10/27 06:44:54;;;;;;;0.73;0.73;;;10.10;99.90;;;;;;5087429;28;20629;-72
2023/10/27 06:47:21;;;;;;;0.67;0.67;;;10.10;99.90;;;;;;5086460;28;20621;-71
2023/10/27 06:49:48;;;;;;;1.70;1.30;;;10.10;99.90;;;;;;5088521;28;20640;-71
2023/10/27 06:52:16;;;;;;;1.20;1.00;;;10.10;99.90;;;;;;5086576;28;20632;-72
2023/10/27 06:54:43;;;;;;;1.50;1.30;;;10.10;99.90;;;;;;5089032;28;20956;-72
2023/10/27 06:57:10;;;;;;;1.10;1.00;;;10.20;99.90;;;;;;5086545;28;20660;-72
2023/10/27 06:59:37;;;;;;;0.83;0.80;;;10.30;99.90;;;;;;5087187;28;20617;-72
2023/10/27 07:02:07;;;;;;;1.13;0.90;;;10.30;99.90;;;;;;5088671;28;20633;-73
2023/10/27 07:04:33;;;;;;;1.77;0.80;;;10.30;99.90;;;;;;5088796;28;20631;-72
2023/10/27 07:07:01;;;;;;;1.10;0.67;;;10.20;99.90;;;;;;5086029;28;21373;-72
2023/10/27 07:09:29;;;;;;;0.60;0.60;;;10.20;99.90;;;;;;5088820;28;20711;-72
2023/10/27 07:11:56;;;;;;;0.63;0.63;;;10.30;99.90;;;;;;5089708;28;20625;-72
2023/10/27 07:14:23;;;;;;;1.13;0.83;;;10.30;99.90;;;;;;5090489;28;20641;-73
2023/10/27 07:16:51;;;;;;;1.03;0.63;;;10.30;99.90;;;;;;5087510;28;20651;-72
2023/10/27 07:19:19;;;;;;;1.00;1.00;;;10.30;99.90;;;;;;5084766;28;21116;-72
2023/10/27 07:21:46;;;;;;;0.70;0.70;;;10.30;99.90;;;;;;5085416;28;21173;-73
2023/10/27 07:24:12;;;;;;;1.20;1.10;;;10.40;99.90;;;;;;5089028;28;20629;-72
2023/10/27 07:26:41;;;;;;;2.00;1.27;;;10.40;99.90;;;;;;5087895;28;20635;-71
2023/10/27 07:29:07;;;;;;;0.60;0.60;;;10.40;99.90;;;;;;5082438;28;20724;-71
2023/10/27 07:31:34;;;;;;;1.07;0.87;;;10.40;99.90;;;;;;5086015;28;20637;-71
2023/10/27 07:34:01;;;;;;;1.87;0.83;;;10.40;99.90;;;;;;5085074;28;20629;-71
2023/10/27 07:36:28;;;;;;;0.70;0.70;;;10.40;99.90;;;;;;5085014;28;20661;-71
2023/10/27 07:38:54;;;;;;;0.83;0.70;;;10.40;99.90;;;;;;5083252;28;20680;-72
2023/10/27 07:41:21;;;;;;;0.97;0.80;;;10.50;99.90;;;;;;5090111;28;20628;-72
2023/10/27 07:43:50;;;;;;;1.47;0.43;;;10.50;99.90;;;;;;5087423;28;20644;-71
2023/10/27 07:46:17;;;;;;;0.87;0.60;;;10.60;99.90;;;;;;5080660;28;20716;-70
2023/10/27 07:48:43;;;;;;;0.50;0.50;;;10.70;99.90;;;;;;5081911;28;20620;-72
2023/10/27 07:51:10;;;;;;;0.83;0.47;;;10.70;99.90;;;;;;5085682;28;20729;-72
2023/10/27 07:53:38;;;;;;;4.13;0.50;;;10.70;99.90;;;;;;5085840;28;20614;-72
2023/10/27 07:56:05;;;;;;;0.60;0.60;;;10.70;99.90;;;;;;5083947;28;20714;-70
2023/10/27 07:58:32;;;;;;;0.80;0.60;;;10.60;99.90;;;;;;5085846;28;20661;-72
2023/10/27 08:01:00;;;;;;;0.60;0.40;;;10.60;99.90;;;;;;5085114;28;20633;-72
2023/10/27 08:03:28;;;;;;;0.50;0.50;;;10.60;99.90;;;;;;5086711;28;20625;-72
2023/10/27 08:05:55;;;;;;;0.43;0.30;;;10.60;99.90;;;;;;5085993;28;20687;-72
2023/10/27 08:08:22;;;;;;;0.40;0.40;;;10.70;99.90;;;;;;5085919;28;20632;-72
2023/10/27 08:10:49;;;;;;;0.80;0.80;;;10.70;99.90;;;;;;5081551;28;20706;-72
2023/10/27 08:13:16;;;;;;;2.50;0.50;;;10.70;99.90;;;;;;5086254;28;21142;-72
2023/10/27 08:15:43;;;;;;;0.47;0.40;;;10.80;99.90;;;;;;5081775;28;20633;-72
2023/10/27 08:18:13;;;;;;;0.50;0.30;;;10.90;99.90;;;;;;5085439;28;20679;-70
2023/10/27 08:20:39;;;;;;;0.60;0.47;;;10.90;99.90;;;;;;5083294;28;20632;-71
2023/10/27 08:23:06;;;;;;;0.40;0.30;;;10.80;99.90;;;;;;5086058;28;21441;-72
2023/10/27 08:25:33;;;;;;;0.50;0.33;;;10.80;99.90;;;;;;5083897;28;20914;-72
2023/10/27 08:28:00;;;;;;;0.47;0.40;;;10.90;99.90;;;;;;5084491;28;20625;-71
2023/10/27 08:30:27;;;;;;;0.40;0.40;;;11.00;99.90;;;;;;5085334;28;21067;-71
2023/10/27 08:32:53;;;;;;;0.47;0.40;;;11.00;99.90;;;;;;5085689;28;20741;-72
2023/10/27 08:35:22;;;;;;;0.90;0.47;;;11.00;99.90;;;;;;5085972;28;21225;-71
2023/10/27 08:37:49;;;;;;;0.40;0.30;;;11.00;99.90;;;;;;5080948;28;20672;-71
2023/10/27 08:40:17;;;;;;;0.50;0.40;;;11.10;99.90;;;;;;5086318;28;20728;-71
2023/10/27 08:42:45;;;;;;;0.40;0.40;;;11.10;99.90;;;;;;5084490;28;20676;-71
2023/10/27 08:45:12;;;;;;;1.53;0.60;;;11.10;99.90;;;;;;5084971;28;20625;-71
2023/10/27 08:47:39;;;;;;;0.60;0.60;;;11.00;99.90;;;;;;5084656;28;21513;-71
2023/10/27 08:50:07;;;;;;;0.30;0.20;;;10.90;99.90;;;;;;5086139;28;20621;-71
2023/10/27 08:52:35;;;;;;;0.50;0.40;;;10.90;99.90;;;;;;5085891;28;20991;-71
2023/10/27 08:55:07;;;;;;;0.50;0.40;;;10.90;99.90;;;;;;5081914;28;20618;-72
2023/10/27 08:57:34;;;;;;;0.70;0.50;;;10.90;99.90;;;;;;5086703;28;20663;-71
2023/10/27 09:00:00;;;;;;;0.40;0.30;;;10.90;99.90;;;;;;5092389;28;20621;-71
2023/10/27 09:02:31;;;;;;;0.80;0.50;;;10.90;99.90;;;;;;5088305;28;20629;-71
2023/10/27 09:05:03;;;;;;;0.40;0.30;;;10.80;99.90;;;;;;5085832;28;20631;-71
2023/10/27 09:07:30;;;;;;;0.30;0.20;;;10.70;99.90;;;;;;5084732;28;20703;-72
2023/10/27 09:09:59;;;;;;;0.60;0.33;;;10.80;99.90;;;;;;5085717;28;20617;-72
2023/10/27 09:12:28;;;;;;;0.77;0.40;;;10.80;99.90;;;;;;5085614;28;20724;-71
2023/10/27 09:15:04;;;;;;;0.30;0.30;;;10.90;99.90;;;;;;5090208;28;20776;-71
2023/10/27 09:17:31;;;;;;;0.40;0.30;;;10.90;99.90;;;;;;5082820;28;21192;-72
2023/10/27 09:20:06;;;;;;;0.60;0.40;;;10.90;99.90;;;;;;5085465;28;20966;-72
2023/10/27 09:22:33;;;;;;;0.50;0.40;;;10.90;99.90;;;;;;5094738;28;20639;-71
2023/10/27 09:25:14;;;;;;;0.70;0.57;;;10.90;99.90;;;;;;5101397;28;20708;-72
2023/10/27 09:27:45;;;;;;;0.80;0.70;;;11.00;99.90;;;;;;5100310;28;20614;-72
2023/10/27 09:30:14;;;;;;;0.73;0.60;;;11.00;99.90;;;;;;5102562;28;20623;-71
2023/10/27 09:32:42;;;;;;;1.57;0.50;;;10.90;99.90;;;;;;5101232;28;20617;-71
2023/10/27 09:35:14;;;;;;;0.80;0.60;;;10.90;99.90;;;;;;5089668;28;20625;-72
2023/10/27 09:37:42;;;;;;;1.60;0.60;;;11.00;99.90;;;;;;5085018;28;20632;-71
2023/10/27 09:40:11;;;;;;;0.90;0.70;;;11.00;99.90;;;;;;5085494;28;20632;-71
2023/10/27 09:42:39;;;;;;;0.83;0.83;;;11.10;99.90;;;;;;5085749;28;20716;-71
2023/10/27 09:45:11;;;;;;;0.53;0.53;;;11.10;99.90;;;;;;5085820;28;20739;-71
2023/10/27 09:47:46;;;;;;;0.60;0.60;;;11.30;99.90;;;;;;5088009;28;20636;-71
2023/10/27 09:50:14;;;;;;;1.30;0.60;;;11.30;99.90;;;;;;5086756;28;20646;-71
2023/10/27 09:52:44;;;;;;;0.60;0.60;;;11.40;99.90;;;;;;5088530;28;20629;-71
2023/10/27 09:55:13;;;;;;;0.63;0.53;;;11.40;99.90;;;;;;5087128;28;21302;-71
2023/10/27 09:57:44;;;;;;;0.57;0.57;;;11.30;99.90;;;;;;5090861;28;20734;-71
2023/10/27 10:00:13;;;;;;;0.70;0.70;;;11.20;99.90;;;;;;5079008;28;21173;-71
2023/10/27 10:02:42;;;;;;;1.10;1.00;;;11.20;99.90;;;;;;5087024;28;20625;-73
2023/10/27 10:05:11;;;;;;;0.60;0.60;;;11.20;99.90;;;;;;5080541;28;21026;-71
2023/10/27 10:07:41;;;;;;;0.80;0.50;;;11.10;99.90;;;;;;5081475;28;20648;-71
2023/10/27 10:10:22;;;;;;;0.40;0.40;;;11.20;99.90;;;;;;5084161;28;20697;-72
2023/10/27 10:13:04;;;;;;;0.40;0.40;;;11.30;99.90;;;;;;5090185;28;21198;-70
2023/10/27 10:15:32;;;;;;;1.57;0.53;;;11.40;99.90;;;;;;5086580;28;20726;-71
2023/10/27 10:17:59;;;;;;;0.50;0.50;;;11.50;99.90;;;;;;5096892;28;20643;-71
2023/10/27 10:20:59;;;;;;;1.07;0.60;;;11.50;99.90;;;;;;5099740;28;20620;-71
2023/10/27 10:24:17;;;;;;;1.90;0.67;;;11.60;99.90;;;;;;5089316;28;20628;-71
2023/10/27 10:27:10;;;;;;;2.30;1.00;;;11.50;99.90;;;;;;5092974;28;20641;-71
2023/10/27 10:29:37;;;;;;;0.40;0.40;;;11.50;99.90;;;;;;5094571;28;20624;-69
2023/10/27 10:32:32;;;;;;;0.70;0.63;;;11.50;99.90;;;;;;5088540;28;20701;-70
2023/10/27 10:35:22;;;;;;;1.40;1.30;;;11.50;99.90;;;;;;5081790;28;20640;-70
2023/10/27 10:37:53;;;;;;;0.77;0.57;;;11.60;99.90;;;;;;5090617;28;21193;-70
2023/10/27 10:40:23;;;;;;;1.60;0.80;;;11.50;99.90;;;;;;5088805;28;20629;-70
2023/10/27 10:43:20;;;;;;;0.77;0.50;;;11.60;99.90;;;;;;5088288;28;20633;-70
2023/10/27 10:45:50;;;;;;;0.70;0.70;;;11.30;99.90;;;;;;5087522;28;20633;-70
2023/10/27 10:48:17;;;;;;;2.23;1.07;;;11.40;99.90;;;;;;5087634;28;20629;-70
2023/10/27 10:50:44;;;;;;;2.10;0.90;;;11.30;99.90;;;;;;5089515;28;21028;-71
2023/10/27 10:53:12;;;;;;;1.70;1.03;;;11.30;99.90;;;;;;5083391;28;20629;-71
2023/10/27 10:55:39;;;;;;;3.80;1.07;;;11.40;99.90;;;;;;5088318;28;20716;-71
2023/10/27 10:58:07;;;;;;;0.70;0.70;;;11.50;99.90;;;;;;5081372;28;20628;-71
2023/10/27 11:00:36;;;;;;;1.20;0.90;;;11.50;99.90;;;;;;5087656;28;20633;-70
2023/10/27 11:03:07;;;;;;;2.30;1.17;;;11.60;99.90;;;;;;5090782;28;20627;-70
2023/10/27 11:05:34;;;;;;;0.90;0.67;;;11.40;99.90;;;;;;5087280;28;20732;-69
2023/10/27 11:08:01;;;;;;;0.73;0.73;;;11.60;99.90;;;;;;5087110;28;21348;-69
2023/10/27 11:10:28;;;;;;;1.17;0.73;;;11.70;99.90;;;;;;5083126;28;20668;-69
2023/10/27 11:12:55;;;;;;;1.07;0.90;;;11.60;99.90;;;;;;5096009;28;20633;-69
2023/10/27 11:15:42;;;;;;;0.60;0.60;;;11.70;99.90;;;;;;5091609;28;20641;-71
2023/10/27 11:18:14;;;;;;;0.63;0.63;;;11.70;99.90;;;;;;5085065;28;20617;-70
2023/10/27 11:20:43;;;;;;;0.97;0.93;;;11.70;99.90;;;;;;5096493;28;20622;-71
2023/10/27 11:23:11;;;;;;;2.40;0.80;;;11.80;99.90;;;;;;5087599;28;20637;-71
2023/10/27 11:25:38;;;;;;;3.10;2.37;;;11.80;99.90;;;;;;5087430;28;20617;-71
2023/10/27 11:28:26;;;;;;;1.00;0.90;;;11.80;99.90;;;;;;5084999;28;20621;-71
2023/10/27 11:31:02;;;;;;;0.80;0.70;;;12.00;99.90;;;;;;5095972;28;20629;-71
2023/10/27 11:33:29;;;;;;;0.50;0.50;;;12.00;99.90;;;;;;5085431;28;21183;-72
2023/10/27 11:35:57;;;;;;;0.60;0.57;;;12.10;99.90;;;;;;5102081;28;20740;-72
2023/10/27 11:38:30;;;;;;;2.60;0.80;;;12.10;99.90;;;;;;5101876;28;20640;-72
2023/10/27 11:41:10;;;;;;;2.10;1.27;;;12.10;99.90;;;;;;5086819;28;20655;-71
2023/10/27 11:43:37;;;;;;;0.70;0.60;;;12.20;99.90;;;;;;5085353;28;21340;-70
2023/10/27 11:46:11;;;;;;;5.43;1.00;;;12.20;99.90;;;;;;5085155;28;21121;-70
2023/10/27 11:48:38;;;;;;;2.10;0.97;;;12.40;99.90;;;;;;5085897;28;20736;-71
2023/10/27 11:51:06;;;;;;;0.67;0.60;;;12.40;99.90;;;;;;5082361;28;20980;-71
2023/10/27 11:53:34;;;;;;;1.70;0.87;;;12.40;99.90;;;;;;5087305;28;20623;-71
2023/10/27 11:56:00;;;;;;;1.23;1.13;;;12.50;99.90;;;;;;5087529;28;20629;-71
2023/10/27 11:58:27;;;;;;;1.10;1.00;;;12.50;99.90;;;;;;5084961;28;20628;-71
2023/10/27 12:00:54;;;;;;;1.57;1.10;;;12.50;99.90;;;;;;5084672;28;20728;-71
2023/10/27 12:03:22;;;;;;;1.37;1.27;;;12.60;99.90;;;;;;5083766;28;20640;-71
2023/10/27 12:05:49;;;;;;;1.13;0.90;;;12.70;99.90;;;;;;5085723;28;20635;-71
2023/10/27 12:08:15;;;;;;;1.23;0.97;;;12.70;99.90;;;;;;5088452;28;20633;-71
2023/10/27 12:10:41;;;;;;;0.60;0.60;;;12.80;99.90;;;;;;5086127;28;20620;-71
2023/10/27 12:13:08;;;;;;;0.60;0.60;;;12.70;99.90;;;;;;5084688;28;20191;-72
2023/10/27 12:15:35;;;;;;;0.70;0.70;;;12.80;99.90;;;;;;5085197;28;20981;-71
2023/10/27 12:18:04;;;;;;;1.53;1.27;;;12.80;99.90;;;;;;5086554;28;20732;-71
2023/10/27 12:20:33;;;;;;;1.10;0.87;;;12.90;99.90;;;;;;5087921;28;20665;-71
2023/10/27 12:23:00;;;;;;;0.87;0.70;;;12.80;99.90;;;;;;5078191;28;20687;-71
2023/10/27 12:25:28;;;;;;;0.70;0.63;;;12.80;99.90;;;;;;5079230;28;20971;-70
2023/10/27 12:27:56;;;;;;;1.90;0.70;;;12.80;99.90;;;;;;5087817;28;20653;-71
2023/10/27 12:30:23;;;;;;;0.80;0.80;;;12.90;99.90;;;;;;5088620;28;21091;-70
2023/10/27 12:32:51;;;;;;;0.97;0.50;;;12.90;99.90;;;;;;5088033;28;20628;-71
2023/10/27 12:35:21;;;;;;;1.13;0.97;;;12.90;99.90;;;;;;5086808;28;20665;-71
2023/10/27 12:37:50;;;;;;;0.80;0.80;;;12.90;99.90;;;;;;5090237;28;21024;-72
2023/10/27 12:40:17;;;;;;;0.60;0.60;;;12.90;99.90;;;;;;5085452;28;20652;-71
2023/10/27 12:42:43;;;;;;;0.87;0.80;;;13.00;99.90;;;;;;5081461;28;20621;-71
2023/10/27 12:45:13;;;;;;;1.07;0.40;;;12.90;99.90;;;;;;5086989;28;20631;-71
2023/10/27 12:47:42;;;;;;;0.83;0.50;;;12.80;99.90;;;;;;5087694;28;20984;-72
2023/10/27 12:50:10;;;;;;;1.43;0.60;;;12.80;99.90;;;;;;5090917;28;20621;-71
2023/10/27 12:52:37;;;;;;;1.27;0.93;;;12.80;99.90;;;;;;5086882;28;20967;-71
2023/10/27 12:55:06;;;;;;;1.13;0.70;;;12.80;99.90;;;;;;5086806;28;20648;-71